ADDS METAR Data

Data at: 0436 UTC 25 Apr 2017

METAR for:EGLF (Farnborough Arpt, --, UK)
Text:No data found

TAF for:EGLF (Farnborough Arpt, --, UK) issued at 1754 UTC 24 Apr 2017
Text:TAF AMD EGLF 241754Z 2418/2421 33008KT 9999 SCT030
Forecast period:1800 to 2100 UTC 24 April 2017
Forecast type:FROM: standard forecast or significant change
Winds:from the NNW (330 degrees) at 9 MPH (8 knots; 4.1 m/s)
Visibility:6 or more sm (10+ km)
Ceiling:at least 12,000 feet AGL
Clouds: scattered clouds at 3000 feet AGL
Text:TEMPO 2418/2421 9000 -SHRA
Forecast period:1800 to 2100 UTC 24 April 2017
Forecast type:TEMPORARY: The following changes expected for less than half the time period
Visibility: 6 sm ( 9 km)
Clouds:missing
Weather:-SHRA (light rain showers)
Text:PROB30
Forecast period:1800 to 2100 UTC 24 April 2017
Forecast type:TEMPORARY: The following changes expected for less than half the time period
Ceiling:1400 feet AGL
Clouds: broken clouds at 1400 feet AGL
Weather:SHRA (rain showers)

METAR for:EGUB (Benson(RAF), --, UK)
Text:EGUB 250350Z 25002KT 9999 FEW040 M01/M05 Q1013 BLU
Temperature: -1.0°C ( 30°F)
Dewpoint: -5.0°C ( 23°F) [RH = 74%]
Pressure (altimeter):29.91 inches Hg (1013.0 mb)
Winds:from the WSW (250 degrees) at 2 MPH (2 knots; 1.0 m/s)
Visibility:6 or more sm (10+ km)
Ceiling:at least 12,000 feet AGL
Clouds: few clouds at 4000 feet AGL

TAF for:EGUB (Benson(RAF), --, UK) issued at 1637 UTC 24 Apr 2017
Text:TAF EGUB 241637Z 2418/2424 32012KT 9999 SCT040
Forecast period:1800 UTC 24 April 2017 to 0000 UTC 25 April 2017
Forecast type:FROM: standard forecast or significant change
Winds:from the NW (320 degrees) at 14 MPH (12 knots; 6.2 m/s)
Visibility:6 or more sm (10+ km)
Ceiling:at least 12,000 feet AGL
Clouds: scattered clouds at 4000 feet AGL

METAR for:EGVO (Odiham(RAF), --, UK)
Text:EGVO 250350Z 27006KT CAVOK 01/M05 Q1013 BLU
Temperature: 1.0°C ( 34°F)
Dewpoint: -5.0°C ( 23°F) [RH = 64%]
Pressure (altimeter):29.91 inches Hg (1013.0 mb)
Winds:from the W (270 degrees) at 7 MPH (6 knots; 3.1 m/s)
Visibility:6 or more sm (10+ km)
Ceiling:ceiling and visibility are OK
Clouds:unknown

TAF for:EGVO (Odiham(RAF), --, UK) issued at 2235 UTC 24 Apr 2017
Text:TAF EGVO 242235Z 2500/2512 34012KT 9999 FEW045
Forecast period:0000 to 1200 UTC 25 April 2017
Forecast type:FROM: standard forecast or significant change
Winds:from the NNW (340 degrees) at 14 MPH (12 knots; 6.2 m/s)
Visibility:6 or more sm (10+ km)
Ceiling:at least 12,000 feet AGL
Clouds: few clouds at 4500 feet AGL
Text:PROB30
Forecast period:0300 to 0800 UTC 25 April 2017
Forecast type:TEMPORARY: The following changes expected for less than half the time period
Ceiling:at least 12,000 feet AGL
Clouds: scattered clouds at 1600 feet AGL

METAR for:EGTK (Oxford Arpt, --, UK)
Text:No data found

TAF for:EGTK (Oxford Arpt, --, UK) issued at 1657 UTC 24 Apr 2017
Text:TAF EGTK 241657Z 2418/2422 25005KT 9999 SCT040
Forecast period:1800 to 2200 UTC 24 April 2017
Forecast type:FROM: standard forecast or significant change
Winds:from the WSW (250 degrees) at 6 MPH (5 knots; 2.6 m/s)
Visibility:6 or more sm (10+ km)
Ceiling:at least 12,000 feet AGL
Clouds: scattered clouds at 4000 feet AGL
Text:TEMPO 2418/2422 30015G25KT
Forecast period:1800 to 2200 UTC 24 April 2017
Forecast type:TEMPORARY: The following changes expected for less than half the time period
Winds:from the WNW (300 degrees) at 17 MPH (15 knots; 7.7 m/s) gusting to 29 MPH (25 knots; 12.9 m/s)
Clouds:missing

METAR for:EGHH (Bournemouth Intl, --, UK)
Text:No data found

TAF for:EGHH (Bournemouth Intl, --, UK) issued at 2200 UTC 24 Apr 2017
Text:TAF AMD EGHH 242200Z 2422/2506 31008KT 9999 FEW030 SCT040
Forecast period:2200 UTC 24 April 2017 to 0600 UTC 25 April 2017
Forecast type:FROM: standard forecast or significant change
Winds:from the NW (310 degrees) at 9 MPH (8 knots; 4.1 m/s)
Visibility:6 or more sm (10+ km)
Ceiling:at least 12,000 feet AGL
Clouds: few clouds at 3000 feet AGL, scattered clouds at 4000 feet AGL
Text:TEMPO 2422/2423 25011KT
Forecast period:2200 to 2300 UTC 24 April 2017
Forecast type:TEMPORARY: The following changes expected for less than half the time period
Winds:from the WSW (250 degrees) at 13 MPH (11 knots; 5.7 m/s)
Clouds:missing

METAR for:
Text:No data found

TAF for:
Text:No data found